Time;durP1;ratioP1;P1;durP2;ratioP2;P2;SDS_P1;SDS_P2;PMS_P1;PMS_P2;Temp;Humidity;BMP_temperature;BMP_pressure;BME280_temperature;BME280_humidity;BME280_pressure;Samples;Min_cycle;Max_cycle;Signal;HPM_P1;HPM_P2
2022/07/08 00:00:06;;;;;;;;;;;;;;;17.40;87.31;100458.64;1688164;85;21080;-77
2022/07/08 00:02:34;;;;;;;0.62;0.60;;;;;;;17.37;88.28;100462.34;1670126;84;20157;-75
2022/07/08 00:05:01;;;;;;;1.57;1.00;;;;;;;17.28;88.87;100455.11;1669936;84;21578;-76
2022/07/08 00:07:27;;;;;;;;;;;;;;;17.31;89.78;100452.78;1668316;84;21098;-77
2022/07/08 00:09:53;;;;;;;0.65;0.65;;;;;;;17.41;88.47;100448.70;1671187;84;20201;-75
2022/07/08 00:12:19;;;;;;;1.07;0.98;;;;;;;17.33;88.89;100455.25;1640914;85;21486;-75
2022/07/08 00:14:46;;;;;;;0.57;0.57;;;;;;;17.29;89.31;100455.39;1664050;84;21104;-76
2022/07/08 00:17:12;;;;;;;2.15;1.40;;;;;;;17.25;89.81;100457.75;1666623;84;21044;-76
2022/07/08 00:19:38;;;;;;;1.40;0.85;;;;;;;17.29;90.32;100459.42;1680227;84;21179;-75
2022/07/08 00:22:05;;;;;;;1.75;0.60;;;;;;;17.39;89.21;100461.05;1677743;84;21044;-77
2022/07/08 00:24:31;;;;;;;1.40;0.62;;;;;;;17.61;89.66;100466.73;1679560;84;21044;-75
2022/07/08 00:26:57;;;;;;;;;;;;;;;17.72;89.19;100478.56;1689049;84;21060;-76
2022/07/08 00:29:23;;;;;;;0.95;0.80;;;;;;;17.70;88.51;100488.23;1693011;83;20116;-77
2022/07/08 00:31:49;;;;;;;2.45;0.70;;;;;;;17.64;89.06;100501.83;1679709;84;21057;-77
2022/07/08 00:34:15;;;;;;;;;;;;;;;17.70;90.38;100503.59;1660653;84;20997;-77
2022/07/08 00:36:41;;;;;;;5.10;0.72;;;;;;;17.80;89.45;100507.91;1672364;85;20147;-75
2022/07/08 00:39:07;;;;;;;;;;;;;;;17.87;89.59;100508.63;1673620;85;21052;-78
2022/07/08 00:41:35;;;;;;;0.50;0.50;;;;;;;18.11;88.29;100507.31;1674020;84;20460;-74
2022/07/08 00:44:02;;;;;;;0.95;0.80;;;;;;;18.28;87.61;100507.43;1668741;85;21030;-75
2022/07/08 00:46:29;;;;;;;1.12;0.70;;;;;;;18.44;87.45;100509.42;1671269;84;21090;-76
2022/07/08 00:48:55;;;;;;;0.40;0.40;;;;;;;18.56;86.38;100510.75;1664371;85;21013;-76
2022/07/08 00:51:22;;;;;;;0.88;0.62;;;;;;;18.75;85.72;100515.47;1674077;84;21060;-77
2022/07/08 00:53:54;;;;;;;1.40;0.88;;;;;;;18.84;84.93;100508.67;1650596;85;21513;-78
2022/07/08 00:56:22;;;;;;;1.80;0.40;;;;;;;18.90;84.40;100513.64;1677640;84;20967;-78
2022/07/08 00:58:50;;;;;;;0.50;0.50;;;;;;;18.92;84.20;100510.71;1682542;84;21044;-75
2022/07/08 01:01:19;;;;;;;0.40;0.40;;;;;;;18.99;84.19;100508.70;1689811;83;21604;-76
2022/07/08 01:03:45;;;;;;;0.93;0.60;;;;;;;19.09;83.85;100508.89;1685164;84;21544;-78
2022/07/08 01:06:12;;;;;;;1.10;0.65;;;;;;;19.37;82.69;100510.77;1699355;84;21496;-76
2022/07/08 01:08:39;;;;;;;0.25;0.25;;;;;;;19.50;81.82;100506.95;1672850;84;20973;-76
2022/07/08 01:11:09;;;;;;;0.93;0.30;;;;;;;19.50;81.57;100508.84;1696995;84;21032;-76
2022/07/08 01:13:36;;;;;;;0.70;0.55;;;;;;;19.49;80.97;100505.29;1679785;83;21470;-76
2022/07/08 01:16:05;;;;;;;3.47;0.68;;;;;;;19.55;81.23;100508.91;1691312;84;21298;-78
2022/07/08 01:18:31;;;;;;;0.90;0.65;;;;;;;19.63;81.04;100500.41;1697348;84;21007;-76
2022/07/08 01:20:59;;;;;;;1.52;0.45;;;;;;;19.56;81.06;100505.96;1680517;84;21060;-78
2022/07/08 01:23:26;;;;;;;0.95;0.68;;;;;;;19.47;81.54;100507.42;1679118;83;21023;-76
2022/07/08 01:25:54;;;;;;;0.57;0.47;;;;;;;19.50;81.73;100511.55;1688677;83;21493;-78
2022/07/08 01:28:22;;;;;;;0.60;0.30;;;;;;;19.60;81.24;100513.06;1669582;84;21583;-77
2022/07/08 01:30:49;;;;;;;1.27;0.30;;;;;;;19.76;80.37;100512.80;1686804;84;21520;-77
2022/07/08 01:33:17;;;;;;;1.30;0.60;;;;;;;19.81;79.85;100512.36;1697572;83;21563;-78
2022/07/08 01:35:44;;;;;;;0.65;0.37;;;;;;;19.74;80.04;100514.42;1689338;84;21003;-77
2022/07/08 01:38:10;;;;;;;1.42;0.60;;;;;;;19.60;80.63;100516.58;1698622;84;20980;-77
2022/07/08 01:40:37;;;;;;;0.68;0.68;;;;;;;19.54;81.43;100518.91;1684160;84;21112;-77
2022/07/08 01:43:06;;;;;;;0.70;0.70;;;;;;;19.31;81.93;100524.41;1691361;84;21087;-78
2022/07/08 01:45:32;;;;;;;0.55;0.30;;;;;;;19.08;83.09;100518.07;1684279;84;21015;-79
2022/07/08 01:47:58;;;;;;;1.27;0.40;;;;;;;18.99;84.57;100517.61;1698441;84;21122;-77
2022/07/08 01:50:24;;;;;;;;;;;;;;;19.14;83.33;100516.28;1695716;83;21560;-80
2022/07/08 01:52:50;;;;;;;1.35;0.93;;;;;;;19.02;81.59;100514.95;1694219;84;20107;-78
2022/07/08 01:55:16;;;;;;;1.27;0.78;;;;;;;18.77;82.28;100522.80;1691008;83;21052;-78
2022/07/08 01:57:44;;;;;;;0.53;0.53;;;;;;;18.63;81.96;100521.44;1695174;84;21027;-76
2022/07/08 02:00:12;;;;;;;0.65;0.65;;;;;;;18.49;83.07;100523.01;1689400;83;21024;-78
2022/07/08 02:02:38;;;;;;;0.70;0.65;;;;;;;18.40;83.25;100515.00;1698686;83;21064;-78
2022/07/08 02:05:06;;;;;;;0.72;0.53;;;;;;;18.31;83.59;100525.86;1690814;83;21071;-76
2022/07/08 02:07:33;;;;;;;4.37;0.65;;;;;;;18.31;84.74;100527.20;1683005;83;21536;-78
2022/07/08 02:10:02;;;;;;;0.68;0.68;;;;;;;18.35;84.88;100531.61;1682301;83;21507;-76
2022/07/08 02:12:29;;;;;;;1.30;0.42;;;;;;;18.32;84.93;100526.14;1689302;83;21551;-77
2022/07/08 02:15:04;;;;;;;;;;;;;;;18.27;86.15;100524.66;1692317;84;20940;-76
2022/07/08 02:17:35;;;;;;;1.82;1.72;;;;;;;18.24;86.17;100519.22;1675262;83;20234;-76
2022/07/08 02:20:05;;;;;;;2.77;2.55;;;;;;;18.13;86.02;100522.73;1697154;84;21010;-78
2022/07/08 02:22:33;;;;;;;1.37;1.37;;;;;;;18.11;86.40;100521.34;1696319;84;21106;-75
2022/07/08 02:24:59;;;;;;;0.85;0.72;;;;;;;18.13;86.97;100521.92;1678347;84;21020;-76
2022/07/08 02:27:26;;;;;;;0.50;0.50;;;;;;;18.13;87.93;100521.38;1676387;83;21025;-76
2022/07/08 02:29:52;;;;;;;2.72;0.70;;;;;;;18.09;87.62;100521.03;1695872;83;21015;-76
2022/07/08 02:32:18;;;;;;;1.15;0.60;;;;;;;18.04;88.21;100516.85;1696868;83;21131;-75
2022/07/08 02:34:45;;;;;;;1.55;0.47;;;;;;;18.03;88.39;100526.02;1698493;83;21082;-75
2022/07/08 02:37:13;;;;;;;0.60;0.30;;;;;;;18.04;88.05;100533.03;1692099;84;21048;-76
2022/07/08 02:39:40;;;;;;;0.47;0.47;;;;;;;18.09;87.07;100526.42;1693672;84;21007;-76
2022/07/08 02:42:08;;;;;;;1.45;0.30;;;;;;;18.09;84.47;100522.91;1693994;84;21074;-77
2022/07/08 02:44:36;;;;;;;0.45;0.40;;;;;;;18.05;84.07;100517.16;1656904;85;21055;-77
2022/07/08 02:47:07;;;;;;;0.65;0.50;;;;;;;18.03;84.50;100513.06;1671060;84;21064;-77
2022/07/08 02:49:34;;;;;;;0.62;0.60;;;;;;;17.97;84.72;100511.28;1692227;84;21111;-78
2022/07/08 02:52:00;;;;;;;1.22;0.40;;;;;;;17.92;84.17;100510.64;1689120;84;22085;-78
2022/07/08 02:54:26;;;;;;;;;;;;;;;17.90;83.90;100515.45;1694203;84;21023;-75
2022/07/08 02:56:52;;;;;;;1.02;0.50;;;;;;;17.86;83.52;100516.44;1677962;84;20108;-77
2022/07/08 02:59:18;;;;;;;0.35;0.35;;;;;;;17.78;84.19;100518.10;1664640;84;21082;-76
2022/07/08 03:01:44;;;;;;;;;;;;;;;17.80;84.18;100521.89;1679401;84;21002;-75
2022/07/08 03:04:11;;;;;;;0.65;0.40;;;;;;;17.82;84.45;100517.09;1675589;84;20593;-79
2022/07/08 03:06:37;;;;;;;0.60;0.60;;;;;;;17.79;83.94;100520.27;1676824;84;21556;-78
2022/07/08 03:09:03;;;;;;;1.07;1.07;;;;;;;17.83;83.85;100522.25;1684611;84;20986;-77
2022/07/08 03:11:29;;;;;;;;;;;;;;;17.87;83.22;100519.41;1677744;84;21018;-77
2022/07/08 03:13:55;;;;;;;2.20;0.80;;;;;;;17.90;82.88;100518.14;1676598;84;20116;-78
2022/07/08 03:16:21;;;;;;;3.83;0.75;;;;;;;17.89;82.99;100516.48;1666374;85;21697;-76
2022/07/08 03:18:48;;;;;;;2.75;0.53;;;;;;;17.91;83.90;100525.16;1664837;85;21533;-76
2022/07/08 03:21:14;;;;;;;1.52;0.70;;;;;;;17.94;85.08;100523.36;1668475;84;21002;-77
2022/07/08 03:23:40;;;;;;;0.70;0.70;;;;;;;17.99;85.74;100524.84;1679535;84;21474;-77
2022/07/08 03:26:06;;;;;;;0.62;0.62;;;;;;;17.99;87.27;100528.05;1686024;84;21069;-75
2022/07/08 03:28:33;;;;;;;1.20;0.95;;;;;;;17.90;86.43;100526.23;1692440;84;21082;-78
2022/07/08 03:30:59;;;;;;;0.85;0.50;;;;;;;17.82;85.87;100535.45;1697570;84;21022;-79
2022/07/08 03:33:25;;;;;;;0.80;0.80;;;;;;;17.79;85.53;100536.44;1694822;84;21005;-78
2022/07/08 03:37:10;;;;;;;0.72;0.72;;;;;;;17.86;86.12;100547.45;1779925;78;22971;-77
2022/07/08 03:39:36;;;;;;;;;;;;;;;17.85;86.56;100546.32;1748744;80;21520;-77
2022/07/08 03:42:03;;;;;;;0.82;0.82;;;;;;;17.87;87.05;100552.30;1743607;80;20121;-77
2022/07/08 03:44:29;;;;;;;0.88;0.85;;;;;;;17.83;85.61;100550.56;1736038;80;21157;-75
2022/07/08 03:46:56;;;;;;;4.33;0.62;;;;;;;17.85;84.75;100547.14;1714253;83;21028;-77
2022/07/08 03:49:22;;;;;;;1.32;0.88;;;;;;;17.92;83.79;100548.93;1706017;83;21015;-80
2022/07/08 03:51:48;;;;;;;;;;;;;;;17.98;84.17;100545.30;1706812;83;21016;-77
2022/07/08 03:54:14;;;;;;;1.20;0.70;;;;;;;18.01;83.69;100544.84;1701179;83;20191;-78
2022/07/08 03:56:40;;;;;;;1.47;0.50;;;;;;;18.00;83.32;100541.30;1704230;83;21035;-77
2022/07/08 03:59:06;;;;;;;0.85;0.47;;;;;;;18.04;82.06;100538.97;1703598;83;21000;-78
2022/07/08 04:01:32;;;;;;;0.95;0.88;;;;;;;18.09;82.19;100543.95;1705551;81;21048;-79
2022/07/08 04:03:59;;;;;;;0.75;0.70;;;;;;;18.15;81.97;100542.20;1672339;84;21030;-79
2022/07/08 04:06:27;;;;;;;1.17;1.05;;;;;;;18.17;82.35;100544.13;1673937;84;21061;-77
2022/07/08 04:08:54;;;;;;;1.30;0.60;;;;;;;18.16;82.05;100534.42;1649475;85;21062;-75
2022/07/08 04:11:21;;;;;;;1.22;0.42;;;;;;;18.17;82.01;100536.58;1659739;84;21055;-76
2022/07/08 04:13:48;;;;;;;0.60;0.60;;;;;;;18.18;81.52;100540.93;1675641;84;21589;-78
2022/07/08 04:16:15;;;;;;;1.27;1.22;;;;;;;18.20;81.41;100540.98;1649983;85;21077;-78
2022/07/08 04:18:42;;;;;;;0.90;0.42;;;;;;;18.25;81.65;100542.97;1649368;85;21504;-77
2022/07/08 04:21:08;;;;;;;1.47;1.45;;;;;;;18.31;81.79;100541.20;1666725;84;20991;-77
2022/07/08 04:23:37;;;;;;;0.50;0.50;;;;;;;18.37;81.05;100541.10;1646380;85;21298;-78
2022/07/08 04:26:04;;;;;;;1.27;1.17;;;;;;;18.44;79.69;100537.77;1674160;84;21517;-78
2022/07/08 04:28:31;;;;;;;1.07;0.80;;;;;;;18.54;79.09;100540.40;1679444;84;21091;-76
2022/07/08 04:30:57;;;;;;;2.00;1.32;;;;;;;18.57;79.41;100539.40;1677869;84;21572;-76
2022/07/08 04:33:23;;;;;;;;;;;;;;;18.53;79.23;100530.64;1676821;82;21258;-78
2022/07/08 04:35:50;;;;;;;0.90;0.90;;;;;;;18.51;79.38;100534.11;1656193;85;20162;-76
2022/07/08 04:38:16;;;;;;;1.85;0.68;;;;;;;18.41;79.42;100530.66;1651325;85;21018;-75
2022/07/08 04:40:43;;;;;;;0.82;0.62;;;;;;;18.43;79.09;100533.94;1652565;85;21566;-79
2022/07/08 04:43:09;;;;;;;2.40;0.72;;;;;;;18.46;79.19;100544.28;1699241;83;21044;-75
2022/07/08 04:45:35;;;;;;;0.40;0.30;;;;;;;18.49;79.00;100544.60;1676365;83;21512;-72
2022/07/08 04:48:01;;;;;;;3.20;0.68;;;;;;;18.53;79.19;100554.94;1660551;85;21025;-76
2022/07/08 04:50:27;;;;;;;0.68;0.68;;;;;;;18.48;79.15;100556.47;1660743;85;21021;-75
2022/07/08 04:52:53;;;;;;;1.47;0.70;;;;;;;18.44;79.43;100564.75;1662528;85;22199;-76
2022/07/08 04:55:29;;;;;;;;;;;;;;;18.41;79.44;100569.80;1666266;84;21241;-73
2022/07/08 04:58:02;;;;;;;0.82;0.80;;;;;;;18.42;79.22;100572.27;1707975;83;20141;-76
2022/07/08 05:00:31;;;;;;;2.33;0.60;;;;;;;18.42;79.35;100567.38;1700680;83;21029;-76
2022/07/08 05:02:58;;;;;;;2.58;0.70;;;;;;;18.44;79.35;100572.84;1657465;85;21490;-75
2022/07/08 05:05:26;;;;;;;0.80;0.80;;;;;;;18.42;79.62;100573.61;1658091;85;21506;-76
2022/07/08 05:07:53;;;;;;;1.30;0.93;;;;;;;18.41;80.11;100576.54;1654549;85;22212;-76
2022/07/08 05:10:23;;;;;;;3.02;1.02;;;;;;;18.39;80.35;100580.81;1657456;85;21062;-74
2022/07/08 05:12:50;;;;;;;1.65;0.72;;;;;;;18.39;80.66;100576.77;1698906;82;21033;-74
2022/07/08 05:15:17;;;;;;;1.10;0.93;;;;;;;18.42;81.17;100574.96;1717461;82;21047;-74
2022/07/08 05:17:45;;;;;;;1.70;1.05;;;;;;;18.47;81.33;100573.70;1711893;82;20994;-76
2022/07/08 05:20:12;;;;;;;0.90;0.90;;;;;;;18.54;81.42;100576.84;1713953;82;21081;-74
2022/07/08 05:22:38;;;;;;;0.70;0.70;;;;;;;18.58;81.09;100578.00;1716403;78;21133;-74
2022/07/08 05:25:07;;;;;;;1.17;1.17;;;;;;;18.60;81.37;100578.05;1715686;82;21097;-72
2022/07/08 05:27:35;;;;;;;1.25;1.00;;;;;;;18.62;81.08;100573.23;1716345;82;21050;-71
2022/07/08 05:30:03;;;;;;;2.27;1.20;;;;;;;18.63;81.58;100568.68;1717971;82;21489;-73
2022/07/08 05:32:30;;;;;;;0.72;0.57;;;;;;;18.62;81.64;100562.97;1724132;81;21078;-70
2022/07/08 05:34:56;;;;;;;0.60;0.53;;;;;;;18.64;81.37;100567.61;1671487;83;21599;-71
2022/07/08 05:37:23;;;;;;;1.15;1.00;;;;;;;18.59;81.65;100562.92;1712576;82;21041;-72
2022/07/08 05:39:49;;;;;;;2.83;1.17;;;;;;;18.53;81.84;100556.29;1716033;82;21051;-58
2022/07/08 05:42:15;;;;;;;1.22;0.88;;;;;;;18.45;81.66;100566.37;1710995;82;20990;-67
2022/07/08 05:44:41;;;;;;;2.30;1.22;;;;;;;18.42;82.03;100570.91;1718855;82;21006;-68
2022/07/08 05:47:08;;;;;;;1.65;1.65;;;;;;;18.43;82.10;100576.59;1716485;82;21109;-72
2022/07/08 05:49:36;;;;;;;1.67;1.57;;;;;;;18.47;82.38;100585.04;1720186;82;21014;-69
2022/07/08 05:52:04;;;;;;;1.77;0.70;;;;;;;18.49;81.89;100591.02;1722848;82;21053;-68
2022/07/08 05:54:32;;;;;;;3.33;0.85;;;;;;;18.50;81.40;100600.78;1709333;82;21030;-69
2022/07/08 05:56:59;;;;;;;2.02;0.72;;;;;;;18.51;81.30;100594.30;1685832;83;21114;-66
2022/07/08 05:59:27;;;;;;;1.22;1.00;;;;;;;18.51;81.21;100598.89;1689449;83;21036;-66
2022/07/08 06:01:54;;;;;;;1.20;0.85;;;;;;;18.52;81.29;100599.20;1684608;83;21067;-66
2022/07/08 06:04:21;;;;;;;1.32;1.22;;;;;;;18.51;80.70;100595.66;1659799;84;21031;-66
2022/07/08 06:06:49;;;;;;;1.90;1.00;;;;;;;18.51;80.71;100598.89;1680976;84;21068;-74
2022/07/08 06:09:16;;;;;;;0.70;0.65;;;;;;;18.49;80.90;100608.03;1670085;84;21511;-69
2022/07/08 06:11:42;;;;;;;1.62;0.98;;;;;;;18.47;81.24;100602.05;1684580;83;21031;-75
2022/07/08 06:14:08;;;;;;;2.27;1.72;;;;;;;18.46;81.47;100603.12;1680348;84;21528;-70
2022/07/08 06:16:35;;;;;;;0.98;0.98;;;;;;;18.45;81.93;100609.56;1680133;84;21599;-69
2022/07/08 06:19:01;;;;;;;;;;;;;;;18.44;82.04;100604.39;1684333;84;21072;-71
2022/07/08 06:21:27;;;;;;;1.57;0.70;;;;;;;18.39;82.50;100603.75;1672219;84;20135;-70
2022/07/08 06:23:54;;;;;;;2.05;0.85;;;;;;;18.31;82.94;100601.92;1680592;83;21000;-66
2022/07/08 06:26:20;;;;;;;3.27;1.25;;;;;;;18.26;83.44;100599.93;1690296;84;21650;-75
2022/07/08 06:28:47;;;;;;;;;;;;;;;18.23;83.87;100596.34;1674883;84;21064;-61
2022/07/08 06:31:13;;;;;;;1.45;1.20;;;;;;;18.20;84.56;100590.08;1673424;84;20215;-74
2022/07/08 06:33:40;;;;;;;1.85;1.25;;;;;;;18.11;85.02;100584.73;1663285;84;21053;-71
2022/07/08 06:36:07;;;;;;;;;;;;;;;18.07;86.05;100576.27;1655866;85;21091;-71
2022/07/08 06:38:34;;;;;;;2.00;1.20;;;;;;;18.05;86.64;100575.15;1651696;85;20613;-71
2022/07/08 06:41:00;;;;;;;1.47;1.20;;;;;;;18.01;86.56;100562.37;1651032;85;21231;-73
2022/07/08 06:43:26;;;;;;;;;;;;;;;18.02;87.01;100555.37;1668233;85;21154;-72
2022/07/08 06:45:53;;;;;;;1.80;1.70;;;;;;;18.06;87.58;100545.79;1664609;83;20142;-71
2022/07/08 06:48:19;;;;;;;4.10;1.50;;;;;;;18.06;87.37;100530.11;1677076;84;21634;-72
2022/07/08 06:50:47;;;;;;;1.02;1.02;;;;;;;18.08;86.87;100507.27;1676912;84;21550;-72
2022/07/08 06:53:13;;;;;;;1.15;1.12;;;;;;;18.03;88.10;100486.91;1678377;84;21025;-71
2022/07/08 06:55:40;;;;;;;1.60;1.57;;;;;;;17.99;87.61;100473.60;1681334;83;21105;-72
2022/07/08 06:58:07;;;;;;;2.50;1.52;;;;;;;17.99;86.46;100472.25;1675098;84;21602;-71
2022/07/08 07:00:33;;;;;;;1.57;1.47;;;;;;;18.02;86.06;100450.73;1678233;84;21159;-74
2022/07/08 07:03:00;;;;;;;2.02;1.30;;;;;;;18.04;86.67;100448.08;1709154;82;21074;-73
2022/07/08 07:05:26;;;;;;;1.92;1.77;;;;;;;18.05;85.60;100458.36;1706203;82;21014;-72
2022/07/08 07:07:52;;;;;;;2.47;2.27;;;;;;;18.06;85.38;100470.27;1710742;82;21005;-73
2022/07/08 07:10:18;;;;;;;0.90;0.90;;;;;;;18.08;85.66;100480.29;1708837;84;21009;-72
2022/07/08 07:12:45;;;;;;;1.07;1.02;;;;;;;18.15;85.00;100502.27;1674906;82;21054;-72
2022/07/08 07:15:11;;;;;;;1.57;1.00;;;;;;;18.23;85.16;100514.89;1665900;85;21078;-70
2022/07/08 07:17:40;;;;;;;;;;;;;;;18.33;83.64;100517.00;1648139;84;21045;-69
2022/07/08 07:20:10;;;;;;;2.77;0.95;;;;;;;18.43;83.52;100516.40;1652754;85;20495;-72
2022/07/08 07:22:37;;;;;;;0.80;0.80;;;;;;;18.40;82.23;100512.81;1636086;85;21146;-71
2022/07/08 07:25:05;;;;;;;0.72;0.42;;;;;;;18.39;81.94;100487.71;1576056;89;21682;-73
2022/07/08 07:27:31;;;;;;;0.70;0.70;;;;;;;18.39;80.91;100465.31;1585634;89;21638;-71
2022/07/08 07:29:58;;;;;;;1.05;0.88;;;;;;;18.31;81.66;100473.24;1630938;86;21089;-72
2022/07/08 07:32:24;;;;;;;1.12;0.80;;;;;;;18.27;81.41;100499.88;1626888;86;21043;-73
2022/07/08 07:34:50;;;;;;;0.95;0.95;;;;;;;18.26;82.01;100523.03;1628495;86;21122;-71
2022/07/08 07:37:17;;;;;;;2.35;1.20;;;;;;;18.31;82.41;100531.77;1627908;88;21099;-72
2022/07/08 07:39:43;;;;;;;;;;;;;;;18.35;82.14;100522.98;1595493;88;21625;-71
2022/07/08 07:42:10;;;;;;;1.05;0.75;;;;;;;18.32;81.57;100525.32;1582431;89;20115;-73
2022/07/08 07:44:36;;;;;;;1.62;0.98;;;;;;;18.26;82.13;100525.73;1579912;89;21062;-72
2022/07/08 07:47:04;;;;;;;1.92;1.20;;;;;;;18.27;82.54;100522.80;1633044;86;21093;-71
2022/07/08 07:49:30;;;;;;;2.70;1.07;;;;;;;18.31;82.48;100529.91;1634258;86;21162;-71
2022/07/08 07:51:56;;;;;;;;;;;;;;;18.07;82.31;100487.27;1635506;87;21030;-72
2022/07/08 07:54:26;;;;;;;1.20;0.70;;;;;;;18.42;81.71;100533.63;1632729;86;20116;-72
2022/07/08 07:56:52;;;;;;;0.70;0.70;;;;;;;18.43;81.11;100532.59;1632484;86;21081;-72
2022/07/08 07:59:18;;;;;;;;;;;;;;;18.45;80.46;100535.34;1606440;88;21457;-71
2022/07/08 08:01:44;;;;;;;0.83;0.80;;;;;;;18.44;80.96;100526.97;1618002;85;20149;-69
2022/07/08 08:04:11;;;;;;;;;;;;;;;18.34;81.48;100517.81;1640940;85;21109;-71
2022/07/08 08:06:37;;;;;;;1.00;1.00;;;;;;;18.30;82.01;100513.41;1648471;85;20203;-71
2022/07/08 08:09:04;;;;;;;1.40;1.17;;;;;;;18.22;81.81;100515.13;1647207;85;21148;-71
2022/07/08 08:11:30;;;;;;;1.95;0.70;;;;;;;18.22;81.62;100518.63;1641317;85;21609;-71
2022/07/08 08:13:57;;;;;;;0.72;0.37;;;;;;;18.29;81.76;100517.99;1611337;87;21068;-70
2022/07/08 08:16:23;;;;;;;;;;;;;;;18.38;80.32;100511.70;1616820;89;21090;-70
2022/07/08 08:18:50;;;;;;;1.10;0.72;;;;;;;18.44;79.88;100512.13;1614519;87;20410;-74
2022/07/08 08:21:16;;;;;;;1.80;1.70;;;;;;;18.47;80.09;100516.22;1611321;87;20992;-71
2022/07/08 08:23:42;;;;;;;;;;;;;;;18.55;79.06;100519.08;1615461;87;21108;-71
2022/07/08 08:26:10;;;;;;;0.65;0.60;;;;;;;18.63;78.00;100511.98;1611110;87;20139;-73
2022/07/08 08:28:36;;;;;;;0.60;0.60;;;;;;;18.61;78.45;100513.57;1615909;87;21731;-77
2022/07/08 08:31:02;;;;;;;;;;;;;;;18.64;77.56;100515.77;1588797;89;21081;-72
2022/07/08 08:33:30;;;;;;;;;;;;;;;18.68;77.75;100511.56;1613208;87;20133;-70
2022/07/08 08:35:56;;;;;;;0.60;0.50;;;;;;;18.71;76.72;100510.26;1609124;88;20105;-71
2022/07/08 08:38:25;;;;;;;2.65;0.20;;;;;;;18.81;77.25;100521.83;1585645;89;21081;-70
2022/07/08 08:40:57;;;;;;;0.25;0.20;;;;;;;18.97;74.57;100517.58;1646996;86;21057;-72
2022/07/08 08:43:23;;;;;;;0.93;0.20;;;;;;;19.09;73.45;100519.69;1647138;87;21023;-72
2022/07/08 08:45:52;;;;;;;0.82;0.70;;;;;;;19.15;72.11;100519.27;1676118;84;21066;-72
2022/07/08 08:48:23;;;;;;;2.20;0.25;;;;;;;19.17;71.53;100519.30;1649617;87;21106;-71
2022/07/08 08:50:56;;;;;;;1.80;0.40;;;;;;;19.22;72.07;100519.95;1647329;86;21027;-70
2022/07/08 08:53:30;;;;;;;0.25;0.20;;;;;;;19.25;70.83;100519.47;1641967;87;21039;-70
2022/07/08 08:56:00;;;;;;;2.60;0.42;;;;;;;19.25;71.06;100517.58;1619039;88;21023;-70
2022/07/08 08:58:27;;;;;;;0.62;0.50;;;;;;;19.28;70.11;100515.45;1644936;87;20992;-71
2022/07/08 09:00:53;;;;;;;2.92;0.20;;;;;;;19.31;70.93;100513.09;1631573;86;21059;-70
2022/07/08 09:03:20;;;;;;;1.22;0.30;;;;;;;19.33;70.97;100516.38;1604006;88;21969;-70
2022/07/08 09:05:48;;;;;;;1.02;0.50;;;;;;;19.37;70.54;100515.36;1631604;88;21050;-71
2022/07/08 09:08:14;;;;;;;1.55;0.20;;;;;;;19.43;70.27;100507.63;1606383;89;21039;-72
2022/07/08 09:10:41;;;;;;;1.35;1.25;;;;;;;19.52;68.43;100507.52;1633443;88;21546;-70
2022/07/08 09:13:14;;;;;;;4.10;0.20;;;;;;;19.60;68.93;100511.16;1629641;88;21024;-70
2022/07/08 09:15:48;;;;;;;1.90;0.20;;;;;;;19.65;68.80;100509.91;1633324;87;21062;-74
2022/07/08 09:18:18;;;;;;;0.53;0.20;;;;;;;19.75;68.40;100511.18;1605104;89;20988;-72
2022/07/08 09:20:51;;;;;;;0.40;0.20;;;;;;;19.84;68.07;100513.77;1633579;87;21051;-71
2022/07/08 09:23:24;;;;;;;0.20;0.20;;;;;;;19.94;67.71;100511.75;1627531;87;21037;-73
2022/07/08 09:25:54;;;;;;;1.98;0.30;;;;;;;19.99;68.30;100504.54;1645581;87;21057;-72
2022/07/08 09:28:45;;;;;;;1.80;0.20;;;;;;;20.06;67.56;100503.55;1639478;87;21120;-71
2022/07/08 09:31:15;;;;;;;3.90;0.33;;;;;;;20.12;67.04;100501.23;1640908;87;21030;-73
2022/07/08 09:33:43;;;;;;;0.40;0.30;;;;;;;20.15;67.64;100496.11;1646746;85;21090;-72
2022/07/08 09:36:11;;;;;;;0.30;0.20;;;;;;;20.15;66.81;100494.75;1611873;88;21090;-71
2022/07/08 09:38:41;;;;;;;0.75;0.20;;;;;;;20.15;66.81;100493.41;1609061;88;21629;-72
2022/07/08 09:41:12;;;;;;;0.55;0.55;;;;;;;20.19;66.27;100486.45;1614976;88;21046;-71
2022/07/08 09:43:44;;;;;;;1.37;0.30;;;;;;;20.26;66.46;100494.92;1614248;88;21043;-70
2022/07/08 09:46:10;;;;;;;0.65;0.20;;;;;;;20.32;66.80;100495.27;1661312;84;21026;-73
2022/07/08 09:48:39;;;;;;;0.65;0.30;;;;;;;20.36;66.58;100490.48;1666910;85;21069;-70
2022/07/08 09:51:09;;;;;;;2.77;0.10;;;;;;;20.37;66.44;100483.98;1671738;85;21688;-72
2022/07/08 09:53:38;;;;;;;0.30;0.20;;;;;;;20.45;66.60;100491.39;1676724;85;21085;-72
2022/07/08 09:56:07;;;;;;;0.40;0.20;;;;;;;20.57;67.20;100490.21;1673612;84;21073;-71
2022/07/08 09:58:35;;;;;;;3.15;0.53;;;;;;;20.74;65.79;100479.89;1670176;85;21085;-71
2022/07/08 10:01:03;;;;;;;2.27;0.60;;;;;;;20.93;65.38;100472.26;1675350;84;20987;-72
2022/07/08 10:03:30;;;;;;;2.25;0.20;;;;;;;21.15;65.22;100478.46;1668250;85;21018;-80
2022/07/08 10:05:59;;;;;;;0.40;0.25;;;;;;;21.27;63.58;100474.23;1674126;85;21065;-70
2022/07/08 10:08:25;;;;;;;0.90;0.23;;;;;;;21.32;62.91;100477.00;1672803;85;21002;-65
2022/07/08 10:10:56;;;;;;;1.00;0.20;;;;;;;21.36;62.46;100480.83;1665328;85;21085;-65
2022/07/08 10:13:24;;;;;;;1.22;0.30;;;;;;;21.47;61.75;100485.02;1677942;83;20986;-64
2022/07/08 10:15:55;;;;;;;0.85;0.28;;;;;;;21.56;60.88;100478.05;1669230;85;21545;-66
2022/07/08 10:18:41;;;;;;;0.78;0.20;;;;;;;21.60;60.74;100494.63;1664308;85;21155;-63
2022/07/08 10:21:10;;;;;;;1.35;0.28;;;;;;;21.65;60.39;100491.97;1678251;85;21501;-65
2022/07/08 10:23:50;;;;;;;0.40;0.20;;;;;;;21.74;59.58;100480.92;1674250;84;21038;-65
2022/07/08 10:26:21;;;;;;;2.10;0.20;;;;;;;21.85;59.39;100479.08;1678534;85;21104;-68
2022/07/08 10:29:02;;;;;;;0.55;0.20;;;;;;;21.87;59.75;100485.91;1671461;85;21038;-67
2022/07/08 10:31:29;;;;;;;0.53;0.20;;;;;;;21.85;59.83;100479.92;1672918;85;21023;-64
2022/07/08 10:34:00;;;;;;;1.25;1.15;;;;;;;21.88;60.59;100485.36;1668039;84;21525;-72
2022/07/08 10:36:26;;;;;;;2.12;0.20;;;;;;;21.89;61.01;100482.94;1673903;85;21018;-64
2022/07/08 10:38:55;;;;;;;1.10;0.10;;;;;;;21.86;60.88;100476.66;1618116;87;21504;-64
2022/07/08 10:41:26;;;;;;;2.15;0.20;;;;;;;21.81;61.40;100479.33;1671472;85;21046;-66
2022/07/08 10:43:57;;;;;;;1.95;0.20;;;;;;;21.85;58.86;100482.64;1678064;85;21026;-65
2022/07/08 10:46:27;;;;;;;0.30;0.20;;;;;;;21.87;59.37;100472.86;1678153;85;21021;-66
2022/07/08 10:48:59;;;;;;;1.27;0.20;;;;;;;21.88;59.62;100484.81;1677847;85;21108;-71
2022/07/08 10:51:31;;;;;;;0.42;0.20;;;;;;;21.74;59.95;100480.92;1669057;84;21039;-66
2022/07/08 10:54:05;;;;;;;1.00;0.20;;;;;;;21.63;59.68;100480.02;1676870;85;20990;-65
2022/07/08 10:57:00;;;;;;;1.67;0.33;;;;;;;21.61;59.85;100491.66;1677562;84;21062;-64
2022/07/08 10:59:30;;;;;;;0.62;0.30;;;;;;;21.63;60.50;100488.70;1675423;85;21030;-67
2022/07/08 11:02:15;;;;;;;1.55;0.20;;;;;;;21.69;61.40;100490.37;1676082;84;21493;-63
2022/07/08 11:04:47;;;;;;;0.88;0.30;;;;;;;21.75;61.42;100485.26;1660608;85;21047;-64
2022/07/08 11:07:24;;;;;;;0.88;0.33;;;;;;;21.80;60.87;100486.66;1669187;85;21062;-64
2022/07/08 11:10:10;;;;;;;2.25;0.30;;;;;;;21.87;61.42;100481.00;1666936;85;20959;-64
2022/07/08 11:12:44;;;;;;;3.52;0.30;;;;;;;21.90;60.17;100482.66;1668653;84;21130;-65
2022/07/08 11:15:18;;;;;;;1.10;0.10;;;;;;;21.91;60.30;100473.45;1671128;85;21101;-68
2022/07/08 11:17:50;;;;;;;1.98;0.25;;;;;;;21.93;59.68;100481.34;1680358;85;21030;-64
2022/07/08 11:20:18;;;;;;;1.40;0.20;;;;;;;21.96;59.65;100485.70;1621410;88;21030;-63
2022/07/08 11:22:46;;;;;;;1.30;0.20;;;;;;;22.00;59.26;100486.01;1677814;84;21093;-64
2022/07/08 11:25:15;;;;;;;0.57;0.20;;;;;;;21.97;59.92;100472.95;1676655;85;21053;-63
2022/07/08 11:27:44;;;;;;;0.82;0.10;;;;;;;21.91;58.30;100487.02;1675078;85;21563;-77
2022/07/08 11:30:16;;;;;;;0.65;0.13;;;;;;;21.89;57.86;100476.97;1668774;85;20998;-64
2022/07/08 11:32:49;;;;;;;2.47;0.10;;;;;;;21.86;57.94;100474.77;1675875;85;21022;-64
2022/07/08 11:35:17;;;;;;;0.20;0.20;;;;;;;21.87;58.01;100470.98;1668035;85;21574;-64